createdAt,value
2023-05-15T00:00:21.320Z,98171.69
2023-05-15T00:01:25.602Z,98170.88
2023-05-15T00:02:27.864Z,98176.28
2023-05-15T00:03:31.267Z,98178.16
2023-05-15T00:04:33.655Z,98168.47
2023-05-15T00:05:35.642Z,98170.09
2023-05-15T00:06:38.362Z,98174.19
2023-05-15T00:07:41.384Z,98165.78
2023-05-15T00:08:45.001Z,98176.56
2023-05-15T00:09:46.931Z,98181.97
2023-05-15T00:11:00.689Z,98183.06
2023-05-15T00:12:04.301Z,98183.88
2023-05-15T00:13:06.198Z,98180.38
2023-05-15T00:14:08.163Z,98176.34
2023-05-15T00:15:10.776Z,98177.97
2023-05-15T00:16:12.773Z,98178.25
2023-05-15T00:17:14.954Z,98179.03
2023-05-15T00:18:16.855Z,98182.03
2023-05-15T00:19:19.074Z,98180.13
2023-05-15T00:20:21.191Z,98180.94
2023-05-15T00:21:23.089Z,98185.84
2023-05-15T00:22:26.520Z,98182.03
2023-05-15T00:23:28.483Z,98179.63
2023-05-15T00:24:30.484Z,98176.16
2023-05-15T00:25:32.670Z,98176.94
2023-05-15T00:26:34.487Z,98178.03
2023-05-15T00:27:36.507Z,98179.94
2023-05-15T00:28:38.424Z,98185.63
2023-05-15T00:29:40.247Z,98182.63
2023-05-15T00:30:42.160Z,98173.44
2023-05-15T00:31:44.152Z,98183.22
2023-05-15T00:32:46.107Z,98185.94
2023-05-15T00:33:48.091Z,98175.94
2023-05-15T00:34:49.895Z,98183.22
2023-05-15T00:35:51.698Z,98185.13
2023-05-15T00:36:53.594Z,98186.22
2023-05-15T00:37:55.570Z,98186.22
2023-05-15T00:38:57.601Z,98185.44
2023-05-15T00:39:59.458Z,98185.69
2023-05-15T00:41:02.560Z,98182.50
2023-05-15T00:42:06.659Z,98186.00
2023-05-15T00:43:11.172Z,98190.59
2023-05-15T00:44:16.819Z,98185.19
2023-05-15T00:45:22.051Z,98181.72
2023-05-15T00:46:27.296Z,98180.91
2023-05-15T00:47:31.043Z,98186.31
2023-05-15T00:48:34.139Z,98177.69
2023-05-15T00:49:37.974Z,98180.38
2023-05-15T00:50:41.631Z,98182.00
2023-05-15T00:51:43.932Z,98188.47
2023-05-15T00:52:46.607Z,98184.16
2023-05-15T00:53:50.765Z,98192.25
2023-05-15T00:54:52.684Z,98188.75
2023-05-15T00:56:00.290Z,98187.16
2023-05-15T00:57:05.592Z,98186.38
2023-05-15T00:58:10.364Z,98185.28
2023-05-15T00:59:13.792Z,98188.25
2023-05-15T01:00:18.483Z,98183.66
2023-05-15T01:01:20.711Z,98180.44
2023-05-15T01:02:23.409Z,98180.44
2023-05-15T01:03:25.990Z,98186.13
2023-05-15T01:04:28.196Z,98189.63
2023-05-15T01:05:30.257Z,98185.03
2023-05-15T01:06:32.799Z,98183.13
2023-05-15T01:07:44.627Z,98180.44
2023-05-15T01:08:49.495Z,98184.25
2023-05-15T01:09:54.283Z,98180.97
2023-05-15T01:10:59.385Z,98186.94
2023-05-15T01:12:02.453Z,98188.84
2023-05-15T01:13:07.350Z,98182.34
2023-05-15T01:14:09.560Z,98182.63
2023-05-15T01:15:11.903Z,98179.16
2023-05-15T01:16:13.935Z,98179.94
2023-05-15T01:17:16.033Z,98183.72
2023-05-15T01:18:18.021Z,98182.13
2023-05-15T01:19:20.190Z,98182.94
2023-05-15T01:20:23.577Z,98184.84
2023-05-15T01:21:37.641Z,98190.72
2023-05-15T01:23:16.305Z,98187.22
2023-05-15T01:24:48.858Z,98186.13
2023-05-15T01:26:30.217Z,98187.53
2023-05-15T01:27:54.962Z,98191.91
2023-05-15T01:29:05.173Z,98196.50
2023-05-15T01:30:23.154Z,98196.81
2023-05-15T01:31:30.657Z,98187.88
2023-05-15T01:32:43.702Z,98198.66
2023-05-15T01:33:54.955Z,98191.69
2023-05-15T01:35:49.772Z,98186.53
2023-05-15T01:36:59.481Z,98185.50
2023-05-15T01:38:17.485Z,98188.50
2023-05-15T01:39:24.199Z,98189.88
2023-05-15T01:40:28.855Z,98189.88
2023-05-15T01:41:50.657Z,98189.59
2023-05-15T01:42:59.134Z,98186.38
2023-05-15T01:44:31.317Z,98182.28
2023-05-15T01:45:35.601Z,98177.19
2023-05-15T01:46:45.255Z,98183.19
2023-05-15T01:47:49.972Z,98182.09
2023-05-15T01:48:54.864Z,98177.50
2023-05-15T01:49:58.502Z,98176.69
2023-05-15T01:51:05.098Z,98174.00
2023-05-15T01:52:28.380Z,98177.50
2023-05-15T01:53:34.226Z,98177.81
2023-05-15T01:54:37.877Z,98181.59
2023-05-15T01:55:42.115Z,98178.09
2023-05-15T01:56:46.126Z,98175.66
2023-05-15T01:57:51.883Z,98181.88
2023-05-15T01:58:56.393Z,98174.88
2023-05-15T01:59:59.863Z,98173.28
2023-05-15T02:01:02.229Z,98172.47
2023-05-15T02:02:07.571Z,98172.47
2023-05-15T02:03:10.216Z,98179.75
2023-05-15T02:04:14.348Z,98166.28
2023-05-15T02:05:18.169Z,98170.56
2023-05-15T02:06:21.722Z,98171.66
2023-05-15T02:07:25.038Z,98169.28
2023-05-15T02:08:28.888Z,98175.47
2023-05-15T02:09:33.149Z,98171.97
2023-05-15T02:10:36.581Z,98173.06
2023-05-15T02:11:39.393Z,98171.16
2023-05-15T02:12:43.558Z,98174.97
2023-05-15T02:13:46.152Z,98173.38
2023-05-15T02:14:50.768Z,98175.47
2023-05-15T02:15:53.352Z,98181.16
2023-05-15T02:16:56.012Z,98176.84
2023-05-15T02:17:57.904Z,98176.06
2023-05-15T02:18:59.850Z,98175.25
2023-05-15T02:20:01.910Z,98173.38
2023-05-15T02:21:04.068Z,98178.44
2023-05-15T02:22:05.966Z,98178.75
2023-05-15T02:23:08.457Z,98178.25
2023-05-15T02:24:10.442Z,98176.66
2023-05-15T02:25:12.407Z,98176.34
2023-05-15T02:26:46.460Z,98177.94
2023-05-15T02:28:02.740Z,98174.75
2023-05-15T02:29:46.644Z,98176.66
2023-05-15T02:31:12.996Z,98178.81
2023-05-15T02:32:44.901Z,98178.81
2023-05-15T02:33:59.226Z,98184.78
2023-05-15T02:35:21.739Z,98176.72
2023-05-15T02:36:33.824Z,98170.81
2023-05-15T02:37:41.507Z,98174.59
2023-05-15T02:38:53.459Z,98179.19
2023-05-15T02:40:00.034Z,98182.19
2023-05-15T02:41:05.876Z,98171.41
2023-05-15T02:42:10.384Z,98177.59
2023-05-15T02:43:15.627Z,98171.69
2023-05-15T02:44:19.350Z,98175.19
2023-05-15T02:45:23.346Z,98174.66
2023-05-15T02:46:28.237Z,98171.16
2023-05-15T02:47:31.184Z,98174.66
2023-05-15T02:48:41.916Z,98179.25
2023-05-15T02:49:45.378Z,98176.56
2023-05-15T02:50:47.298Z,98174.66
2023-05-15T02:51:49.244Z,98174.66
2023-05-15T02:52:51.114Z,98173.66
2023-05-15T02:53:55.026Z,98171.47
2023-05-15T02:54:56.877Z,98176.56
2023-05-15T02:55:58.774Z,98167.69
2023-05-15T02:57:00.655Z,98176.84
2023-05-15T02:58:03.870Z,98174.16
2023-05-15T02:59:06.441Z,98174.16
2023-05-15T03:00:11.893Z,98171.47
2023-05-15T03:01:13.801Z,98174.16
2023-05-15T03:02:16.130Z,98168.28
2023-05-15T03:03:18.008Z,98176.84
2023-05-15T03:04:20.733Z,98180.34
2023-05-15T03:05:23.135Z,98173.38
2023-05-15T03:06:25.267Z,98172.56
2023-05-15T03:07:27.284Z,98173.66
2023-05-15T03:08:29.936Z,98178.44
2023-05-15T03:09:31.823Z,98172.84
2023-05-15T03:10:33.788Z,98175.25
2023-05-15T03:11:35.606Z,98170.97
2023-05-15T03:12:39.143Z,98170.16
2023-05-15T03:13:41.002Z,98167.47
2023-05-15T03:14:42.940Z,98172.84
2023-05-15T03:15:45.526Z,98167.75
2023-05-15T03:16:47.536Z,98171.25
2023-05-15T03:17:49.607Z,98169.66
2023-05-15T03:18:51.475Z,98171.25
2023-05-15T03:19:53.663Z,98161.56
2023-05-15T03:20:55.547Z,98164.56
2023-05-15T03:21:57.406Z,98175.34
2023-05-15T03:22:59.429Z,98166.16
2023-05-15T03:24:01.925Z,98171.56
2023-05-15T03:25:04.051Z,98176.94
2023-05-15T03:26:05.889Z,98170.47
2023-05-15T03:27:07.759Z,98173.16
2023-05-15T03:28:09.592Z,98172.34
2023-05-15T03:29:11.822Z,98169.97
2023-05-15T03:30:14.081Z,98177.25
2023-05-15T03:31:16.048Z,98173.44
2023-05-15T03:32:18.128Z,98185.03
2023-05-15T03:33:20.492Z,98173.75
2023-05-15T03:34:22.417Z,98172.13
2023-05-15T03:35:25.109Z,98176.44
2023-05-15T03:36:27.231Z,98179.13
2023-05-15T03:37:29.182Z,98176.44
2023-05-15T03:38:31.249Z,98177.50
2023-05-15T03:39:33.131Z,98179.94
2023-05-15T03:40:35.026Z,98177.50
2023-05-15T03:41:36.934Z,98173.75
2023-05-15T03:42:38.768Z,98174.81
2023-05-15T03:43:40.915Z,98178.59
2023-05-15T03:44:42.988Z,98170.50
2023-05-15T03:45:45.030Z,98174.81
2023-05-15T03:46:46.964Z,98176.69
2023-05-15T03:47:49.287Z,98173.22
2023-05-15T03:48:51.210Z,98176.16
2023-05-15T03:49:53.229Z,98177.50
2023-05-15T03:50:55.734Z,98177.78
2023-05-15T03:51:58.070Z,98174.31
2023-05-15T03:53:00.469Z,98179.69
2023-05-15T03:54:05.194Z,98171.06
2023-05-15T03:55:07.938Z,98174.56
2023-05-15T03:56:09.905Z,98175.38
2023-05-15T03:57:12.565Z,98169.19
2023-05-15T03:58:14.375Z,98172.47
2023-05-15T03:59:16.239Z,98172.16
2023-05-15T04:00:21.932Z,98172.47
2023-05-15T04:01:23.862Z,98172.16
2023-05-15T04:02:25.754Z,98174.06
2023-05-15T04:03:28.069Z,98175.97
2023-05-15T04:04:30.522Z,98175.16
2023-05-15T04:05:32.411Z,98176.25
2023-05-15T04:06:34.227Z,98169.78
2023-05-15T04:07:37.573Z,98180.03
2023-05-15T04:08:40.420Z,98174.34
2023-05-15T04:09:43.450Z,98171.66
2023-05-15T04:10:45.290Z,98170.88
2023-05-15T04:11:47.091Z,98169.25
2023-05-15T04:12:49.261Z,98170.88
2023-05-15T04:13:51.080Z,98164.69
2023-05-15T04:14:52.957Z,98167.38
2023-05-15T04:15:56.584Z,98173.56
2023-05-15T04:16:58.373Z,98170.06
2023-05-15T04:18:00.553Z,98168.97
2023-05-15T04:19:02.599Z,98167.88
2023-05-15T04:20:06.552Z,98165.19
2023-05-15T04:21:08.700Z,98162.50
2023-05-15T04:22:10.705Z,98175.97
2023-05-15T04:23:12.647Z,98173.78
2023-05-15T04:24:14.484Z,98172.16
2023-05-15T04:25:18.251Z,98172.97
2023-05-15T04:26:20.092Z,98173.47
2023-05-15T04:27:22.527Z,98176.47
2023-05-15T04:28:24.482Z,98168.09
2023-05-15T04:29:26.402Z,98170.78
2023-05-15T04:30:28.398Z,98176.16
2023-05-15T04:31:31.649Z,98170.50
2023-05-15T04:32:34.483Z,98170.50
2023-05-15T04:33:36.872Z,98176.69
2023-05-15T04:34:39.230Z,98174.00
2023-05-15T04:35:41.520Z,98174.81
2023-05-15T04:36:43.477Z,98169.41
2023-05-15T04:37:48.030Z,98175.59
2023-05-15T04:38:49.949Z,98173.75
2023-05-15T04:39:51.753Z,98168.34
2023-05-15T04:40:53.758Z,98171.84
2023-05-15T04:41:55.890Z,98176.44
2023-05-15T04:42:58.084Z,98176.94
2023-05-15T04:43:59.997Z,98178.03
2023-05-15T04:45:02.761Z,98177.25
2023-05-15T04:46:05.158Z,98179.63
2023-05-15T04:47:07.075Z,98180.72
2023-05-15T04:48:09.096Z,98174.53
2023-05-15T04:49:10.981Z,98179.63
2023-05-15T04:50:13.089Z,98180.72
2023-05-15T04:51:15.146Z,98179.63
2023-05-15T04:52:18.015Z,98180.72
2023-05-15T04:53:19.892Z,98172.66
2023-05-15T04:54:22.269Z,98174.25
2023-05-15T04:55:24.304Z,98183.13
2023-05-15T04:56:26.328Z,98179.13
2023-05-15T04:57:28.374Z,98175.34
2023-05-15T04:58:30.488Z,98174.53
2023-05-15T04:59:32.337Z,98178.31
2023-05-15T05:00:34.208Z,98173.75
2023-05-15T05:01:36.014Z,98173.75
2023-05-15T05:02:43.226Z,98169.16
2023-05-15T05:03:45.236Z,98170.22
2023-05-15T05:04:47.162Z,98176.44
2023-05-15T05:05:49.375Z,98174.81
2023-05-15T05:06:51.277Z,98169.41
2023-05-15T05:07:53.156Z,98173.75
2023-05-15T05:08:54.996Z,98174.81
2023-05-15T05:09:56.875Z,98171.31
2023-05-15T05:10:58.850Z,98179.41
2023-05-15T05:12:01.946Z,98176.44
2023-05-15T05:13:04.285Z,98174.81
2023-05-15T05:14:06.232Z,98175.09
2023-05-15T05:15:09.385Z,98169.72
2023-05-15T05:16:11.621Z,98174.31
2023-05-15T05:17:14.086Z,98175.91
2023-05-15T05:18:15.992Z,98186.69
2023-05-15T05:19:18.114Z,98174.31
2023-05-15T05:20:20.068Z,98172.91
2023-05-15T05:21:22.072Z,98173.22
2023-05-15T05:22:23.963Z,98192.06
2023-05-15T05:23:26.023Z,98182.09
2023-05-15T05:24:28.604Z,98183.19
2023-05-15T05:25:30.658Z,98186.69
2023-05-15T05:26:32.727Z,98183.97
2023-05-15T05:27:34.712Z,98183.19
2023-05-15T05:28:36.566Z,98181.28
2023-05-15T05:29:39.911Z,98179.41
2023-05-15T05:30:48.518Z,98177.50
2023-05-15T05:31:50.544Z,98176.16
2023-05-15T05:32:52.679Z,98178.59
2023-05-15T05:33:55.657Z,98181.28
2023-05-15T05:34:57.529Z,98182.38
2023-05-15T05:35:59.437Z,98186.69
2023-05-15T05:37:01.593Z,98173.47
2023-05-15T05:38:03.973Z,98177.00
2023-05-15T05:39:05.853Z,98178.59
2023-05-15T05:40:09.187Z,98185.88
2023-05-15T05:41:11.220Z,98185.88
2023-05-15T05:42:13.144Z,98179.41
2023-05-15T05:43:15.092Z,98181.56
2023-05-15T05:44:17.147Z,98179.69
2023-05-15T05:45:19.556Z,98184.25
2023-05-15T05:46:21.742Z,98178.06
2023-05-15T05:47:23.821Z,98179.69
2023-05-15T05:48:26.794Z,98178.06
2023-05-15T05:49:28.700Z,98180.50
2023-05-15T05:50:30.634Z,98179.69
2023-05-15T05:51:36.806Z,98179.94
2023-05-15T05:52:39.006Z,98184.78
2023-05-15T05:53:41.155Z,98178.59
2023-05-15T05:54:45.818Z,98187.47
2023-05-15T05:55:48.846Z,98183.97
2023-05-15T05:56:51.004Z,98186.69
2023-05-15T05:57:52.967Z,98183.19
2023-05-15T05:58:56.384Z,98185.59
2023-05-15T05:59:58.898Z,98186.69
2023-05-15T06:01:01.127Z,98183.69
2023-05-15T06:02:03.872Z,98188.28
2023-05-15T06:03:05.774Z,98189.06
2023-05-15T06:04:07.801Z,98186.38
2023-05-15T06:05:09.843Z,98185.88
2023-05-15T06:06:12.114Z,98186.69
2023-05-15T06:07:14.393Z,98190.97
2023-05-15T06:08:17.183Z,98193.97
2023-05-15T06:09:19.070Z,98193.66
2023-05-15T06:10:21.877Z,98198.78
2023-05-15T06:11:25.345Z,98193.41
2023-05-15T06:12:28.268Z,98184.78
2023-05-15T06:13:30.083Z,98189.38
2023-05-15T06:14:32.036Z,98194.47
2023-05-15T06:15:33.991Z,98189.06
2023-05-15T06:16:36.047Z,98189.91
2023-05-15T06:17:38.910Z,98189.91
2023-05-15T06:18:40.979Z,98191.50
2023-05-15T06:19:42.971Z,98196.59
2023-05-15T06:20:44.930Z,98193.41
2023-05-15T06:21:46.746Z,98189.91
2023-05-15T06:22:48.674Z,98189.91
2023-05-15T06:23:50.753Z,98192.00
2023-05-15T06:24:52.738Z,98189.31
2023-05-15T06:25:54.664Z,98197.91
2023-05-15T06:26:56.936Z,98193.59
2023-05-15T06:27:59.011Z,98193.59
2023-05-15T06:29:01.106Z,98185.81
2023-05-15T06:30:02.999Z,98190.13
2023-05-15T06:31:05.169Z,98192.22
2023-05-15T06:32:07.501Z,98194.63
2023-05-15T06:33:09.513Z,98186.03
2023-05-15T06:34:11.533Z,98194.63
2023-05-15T06:35:13.523Z,98189.22
2023-05-15T06:36:16.844Z,98192.50
2023-05-15T06:37:18.762Z,98193.81
2023-05-15T06:38:20.590Z,98188.72
2023-05-15T06:39:22.535Z,98196.50
2023-05-15T06:40:24.993Z,98200.00
2023-05-15T06:41:27.433Z,98197.03
2023-05-15T06:42:29.384Z,98198.91
2023-05-15T06:43:31.528Z,98201.31
2023-05-15T06:44:33.773Z,98199.72
2023-05-15T06:45:35.973Z,98200.50
2023-05-15T06:46:37.905Z,98200.50
2023-05-15T06:47:40.093Z,98201.03
2023-05-15T06:48:42.259Z,98198.34
2023-05-15T06:49:44.216Z,98205.34
2023-05-15T06:50:46.109Z,98205.84
2023-05-15T06:51:48.258Z,98198.56
2023-05-15T06:52:50.186Z,98202.06
2023-05-15T06:53:52.211Z,98202.84
2023-05-15T06:54:54.231Z,98201.75
2023-05-15T06:55:56.609Z,98204.16
2023-05-15T06:56:58.517Z,98199.28
2023-05-15T06:58:00.551Z,98202.25
2023-05-15T06:59:02.835Z,98202.78
2023-05-15T07:00:06.075Z,98204.41
2023-05-15T07:01:09.514Z,98198.22
2023-05-15T07:02:11.801Z,98202.50
2023-05-15T07:03:14.541Z,98199.00
2023-05-15T07:04:16.848Z,98205.41
2023-05-15T07:05:19.163Z,98212.69
2023-05-15T07:06:21.059Z,98208.41
2023-05-15T07:07:22.955Z,98200.00
2023-05-15T07:08:24.988Z,98206.19
2023-05-15T07:09:26.991Z,98204.00
2023-05-15T07:10:29.210Z,98217.50
2023-05-15T07:11:33.633Z,98208.59
2023-05-15T07:12:35.615Z,98205.59
2023-05-15T07:13:37.629Z,98216.38
2023-05-15T07:14:39.656Z,98218.28
2023-05-15T07:15:41.936Z,98210.69
2023-05-15T07:16:44.004Z,98212.03
2023-05-15T07:17:46.000Z,98210.44
2023-05-15T07:18:48.291Z,98213.63
2023-05-15T07:19:50.222Z,98207.44
2023-05-15T07:20:52.059Z,98210.66
2023-05-15T07:21:53.977Z,98211.75
2023-05-15T07:22:56.925Z,98210.66
2023-05-15T07:23:59.112Z,98207.16
2023-05-15T07:25:01.038Z,98210.34
2023-05-15T07:26:03.048Z,98209.25
2023-05-15T07:27:05.377Z,98202.25
2023-05-15T07:28:07.537Z,98203.84
2023-05-15T07:30:12.132Z,98202.75
2023-05-15T07:31:14.017Z,98207.06
2023-05-15T07:32:15.924Z,98207.06
2023-05-15T07:33:17.959Z,98205.47
2023-05-15T07:34:20.176Z,98210.84
2023-05-15T07:35:22.099Z,98206.25
2023-05-15T07:36:24.017Z,98200.06
2023-05-15T07:37:26.084Z,98197.88
2023-05-15T07:38:28.124Z,98202.47
2023-05-15T07:39:30.195Z,98203.25
2023-05-15T07:40:32.858Z,98206.50
2023-05-15T07:41:34.843Z,98209.19
2023-05-15T07:42:36.799Z,98208.09
2023-05-15T07:43:38.697Z,98208.38
2023-05-15T07:44:41.869Z,98204.59
2023-05-15T07:45:46.362Z,98202.69
2023-05-15T07:46:48.433Z,98200.81
2023-05-15T07:47:50.971Z,98200.81
2023-05-15T07:48:52.835Z,98203.19
2023-05-15T07:49:54.641Z,98198.63
2023-05-15T07:50:57.093Z,98200.50
2023-05-15T07:51:59.231Z,98199.72
2023-05-15T07:53:01.142Z,98198.91
2023-05-15T07:54:04.420Z,98195.72
2023-05-15T07:55:07.240Z,98198.91
2023-05-15T07:56:09.187Z,98194.63
2023-05-15T07:57:11.052Z,98200.00
2023-05-15T07:58:12.936Z,98196.22
2023-05-15T07:59:15.016Z,98191.91
2023-05-15T08:00:17.836Z,98190.81
2023-05-15T08:01:19.821Z,98190.81
2023-05-15T08:02:21.860Z,98193.50
2023-05-15T08:03:24.015Z,98189.72
2023-05-15T08:04:26.220Z,98187.81
2023-05-15T08:05:28.942Z,98191.31
2023-05-15T08:06:32.977Z,98197.50
2023-05-15T08:07:35.873Z,98194.03
2023-05-15T08:08:37.865Z,98184.84
2023-05-15T08:09:39.708Z,98185.34
2023-05-15T08:10:41.768Z,98189.63
2023-05-15T08:11:43.946Z,98190.16
2023-05-15T08:12:47.162Z,98189.06
2023-05-15T08:13:50.706Z,98191.75
2023-05-15T08:14:55.572Z,98181.78
2023-05-15T08:15:57.916Z,98187.97
2023-05-15T08:16:59.881Z,98188.47
2023-05-15T08:18:02.028Z,98194.69
2023-05-15T08:19:07.008Z,98182.00
2023-05-15T08:20:09.826Z,98181.72
2023-05-15T08:21:11.919Z,98182.81
2023-05-15T08:22:14.632Z,98186.00
2023-05-15T08:23:16.483Z,98185.44
2023-05-15T08:24:18.278Z,98177.34
2023-05-15T08:25:20.701Z,98179.44
2023-05-15T08:26:22.699Z,98186.72
2023-05-15T08:27:24.596Z,98183.72
2023-05-15T08:28:26.520Z,98181.03
2023-05-15T08:29:28.382Z,98185.34
2023-05-15T08:30:30.298Z,98186.94
2023-05-15T08:31:32.189Z,98191.22
2023-05-15T08:32:34.283Z,98184.72
2023-05-15T08:33:36.449Z,98179.03
2023-05-15T08:34:38.889Z,98179.03
2023-05-15T08:35:40.970Z,98184.16
2023-05-15T08:36:42.942Z,98189.56
2023-05-15T08:37:44.805Z,98180.38
2023-05-15T08:38:46.611Z,98177.88
2023-05-15T08:39:48.561Z,98172.47
2023-05-15T08:40:54.424Z,98174.06
2023-05-15T08:42:03.949Z,98172.66
2023-05-15T08:43:15.953Z,98177.28
2023-05-15T08:44:18.911Z,98178.88
2023-05-15T08:45:21.750Z,98169.69
2023-05-15T08:46:24.796Z,98174.28
2023-05-15T08:47:30.118Z,98172.09
2023-05-15T08:48:37.404Z,98174.00
2023-05-15T08:50:06.072Z,98166.91
2023-05-15T08:51:12.688Z,98171.50
2023-05-15T08:52:16.691Z,98175.78
2023-05-15T08:53:19.307Z,98170.69
2023-05-15T08:54:22.676Z,98177.41
2023-05-15T08:55:25.592Z,98170.09
2023-05-15T08:56:27.837Z,98178.19
2023-05-15T08:57:31.505Z,98172.78
2023-05-15T08:58:34.415Z,98171.69
2023-05-15T08:59:37.749Z,98167.09
2023-05-15T09:00:39.629Z,98175.69
2023-05-15T09:01:41.462Z,98170.03
2023-05-15T09:02:43.798Z,98171.91
2023-05-15T09:03:46.536Z,98177.00
2023-05-15T09:04:49.049Z,98167.81
2023-05-15T09:05:53.623Z,98166.72
2023-05-15T09:06:58.923Z,98169.91
2023-05-15T09:08:06.616Z,98166.41
2023-05-15T09:09:13.439Z,98160.22
2023-05-15T09:10:16.599Z,98170.72
2023-05-15T09:11:19.120Z,98166.13
2023-05-15T09:12:25.005Z,98166.13
2023-05-15T09:13:26.971Z,98165.81
2023-05-15T09:14:29.293Z,98165.00
2023-05-15T09:15:32.960Z,98163.13
2023-05-15T09:16:34.976Z,98165.81
2023-05-15T09:17:37.215Z,98157.41
2023-05-15T09:18:41.492Z,98157.16
2023-05-15T09:19:44.002Z,98163.34
2023-05-15T09:20:46.012Z,98160.63
2023-05-15T09:21:48.275Z,98153.34
2023-05-15T09:22:50.309Z,98156.53
2023-05-15T09:23:53.924Z,98160.84
2023-05-15T09:24:58.206Z,98158.94
2023-05-15T09:26:00.652Z,98157.03
2023-05-15T09:27:07.681Z,98161.63
2023-05-15T09:28:24.001Z,98162.44
2023-05-15T09:29:29.282Z,98163.72
2023-05-15T09:30:31.291Z,98160.53
2023-05-15T09:31:34.015Z,98165.94
2023-05-15T09:32:37.731Z,98164.81
2023-05-15T09:33:42.370Z,98159.72
2023-05-15T09:34:46.276Z,98162.63
2023-05-15T09:35:48.259Z,98158.31
2023-05-15T09:36:50.263Z,98154.53
2023-05-15T09:38:02.388Z,98159.66
2023-05-15T09:39:04.501Z,98156.13
2023-05-15T09:40:11.762Z,98157.47
2023-05-15T09:41:13.661Z,98158.28
2023-05-15T09:42:16.078Z,98159.06
2023-05-15T09:43:18.010Z,98162.56
2023-05-15T09:44:25.575Z,98157.19
2023-05-15T09:45:29.932Z,98156.06
2023-05-15T09:46:36.547Z,98154.66
2023-05-15T09:47:39.019Z,98158.16
2023-05-15T09:48:41.111Z,98151.97
2023-05-15T09:49:47.225Z,98144.66
2023-05-15T09:50:50.295Z,98151.66
2023-05-15T09:51:52.700Z,98151.34
2023-05-15T09:52:58.603Z,98145.16
2023-05-15T09:54:01.030Z,98146.78
2023-05-15T09:55:02.929Z,98143.78
2023-05-15T09:56:05.175Z,98140.28
2023-05-15T09:57:13.991Z,98140.78
2023-05-15T09:58:18.540Z,98136.19
2023-05-15T09:59:24.550Z,98143.16
2023-05-15T10:00:26.504Z,98134.78
2023-05-15T10:01:28.585Z,98135.56
2023-05-15T10:02:34.855Z,98132.56
2023-05-15T10:03:36.859Z,98132.56
2023-05-15T10:04:38.992Z,98126.84
2023-05-15T10:05:43.436Z,98129.56
2023-05-15T10:06:49.348Z,98134.06
2023-05-15T10:07:55.646Z,98131.38
2023-05-15T10:08:58.464Z,98128.66
2023-05-15T10:10:03.013Z,98125.97
2023-05-15T10:11:06.276Z,98124.06
2023-05-15T10:12:09.528Z,98124.06
2023-05-15T10:13:11.925Z,98126.47
2023-05-15T10:14:14.710Z,98126.47
2023-05-15T10:15:19.290Z,98122.66
2023-05-15T10:16:24.698Z,98119.16
2023-05-15T10:17:32.058Z,98118.84
2023-05-15T10:18:37.052Z,98131.25
2023-05-15T10:19:50.846Z,98125.06
2023-05-15T10:21:04.076Z,98123.66
2023-05-15T10:22:07.221Z,98115.53
2023-05-15T10:23:14.187Z,98119.88
2023-05-15T10:24:20.597Z,98118.75
2023-05-15T10:26:00.821Z,98114.34
2023-05-15T10:27:04.203Z,98111.47
2023-05-15T10:28:10.653Z,98120.34
2023-05-15T10:29:15.156Z,98111.75
2023-05-15T10:30:17.450Z,98107.16
2023-05-15T10:31:20.826Z,98103.66
2023-05-15T10:32:24.568Z,98097.16
2023-05-15T10:33:28.065Z,98101.47
2023-05-15T10:34:31.180Z,98102.56
2023-05-15T10:35:36.219Z,98097.97
2023-05-15T10:36:39.364Z,98093.34
2023-05-15T10:37:41.875Z,98098.44
2023-05-15T10:38:46.089Z,98096.53
2023-05-15T10:39:49.667Z,98091.16
2023-05-15T10:41:05.540Z,98086.53
2023-05-15T10:42:18.181Z,98082.75
2023-05-15T10:43:21.421Z,98090.84
2023-05-15T10:44:23.993Z,98083.53
2023-05-15T10:45:26.706Z,98079.72
2023-05-15T10:46:32.015Z,98085.13
2023-05-15T10:47:34.891Z,98081.31
2023-05-15T10:48:37.438Z,98083.72
2023-05-15T10:49:39.352Z,98072.13
2023-05-15T10:50:41.643Z,98075.63
2023-05-15T10:51:43.662Z,98070.53
2023-05-15T10:52:45.728Z,98076.44
2023-05-15T10:53:48.020Z,98065.63
2023-05-15T10:54:50.432Z,98059.94
2023-05-15T10:55:52.550Z,98066.13
2023-05-15T10:56:57.253Z,98066.13
2023-05-15T10:57:59.678Z,98073.91
2023-05-15T10:59:10.698Z,98060.91
2023-05-15T11:00:27.927Z,98059.81
2023-05-15T11:01:35.748Z,98062.50
2023-05-15T11:02:41.407Z,98059.00
2023-05-15T11:03:49.187Z,98061.69
2023-05-15T11:05:01.086Z,98058.22
2023-05-15T11:06:13.538Z,98059.00
2023-05-15T11:07:18.312Z,98060.09
2023-05-15T11:08:21.712Z,98060.09
2023-05-15T11:09:29.275Z,98053.91
2023-05-15T11:10:31.219Z,98054.72
2023-05-15T11:11:51.804Z,98054.09
2023-05-15T11:13:01.988Z,98054.88
2023-05-15T11:14:07.925Z,98053.28
2023-05-15T11:15:09.807Z,98058.69
2023-05-15T11:16:12.225Z,98060.59
2023-05-15T11:17:17.601Z,98048.69
2023-05-15T11:18:21.019Z,98060.28
2023-05-15T11:19:29.030Z,98058.06
2023-05-15T11:21:02.680Z,98063.09
2023-05-15T11:22:17.609Z,98059.88
2023-05-15T11:23:23.921Z,98058.28
2023-05-15T11:24:33.621Z,98058.28
2023-05-15T11:25:37.244Z,98052.88
2023-05-15T11:26:43.081Z,98053.69
2023-05-15T11:27:46.610Z,98059.88
2023-05-15T11:28:48.741Z,98052.56
2023-05-15T11:30:14.863Z,98057.06
2023-05-15T11:31:17.051Z,98057.69
2023-05-15T11:32:46.995Z,98063.00
2023-05-15T11:33:52.522Z,98057.06
2023-05-15T11:35:01.684Z,98051.66
2023-05-15T11:36:06.362Z,98053.09
2023-05-15T11:37:17.894Z,98061.38
2023-05-15T11:38:27.520Z,98055.97
2023-05-15T11:39:29.589Z,98054.38
2023-05-15T11:40:44.630Z,98055.16
2023-05-15T11:41:46.887Z,98054.09
2023-05-15T11:43:08.790Z,98053.47
2023-05-15T11:44:10.727Z,98051.88
2023-05-15T11:45:12.661Z,98048.69
2023-05-15T11:46:16.433Z,98057.88
2023-05-15T11:47:18.496Z,98060.28
2023-05-15T11:48:20.713Z,98064.06
2023-05-15T11:49:24.784Z,98075.41
2023-05-15T11:50:27.938Z,98066.50
2023-05-15T11:51:30.687Z,98077.31
2023-05-15T11:52:32.734Z,98073.50
2023-05-15T11:53:35.808Z,98067.28
2023-05-15T11:54:37.908Z,98066.50
2023-05-15T11:55:44.204Z,98075.09
2023-05-15T11:56:46.552Z,98062.19
2023-05-15T11:57:48.493Z,98070.00
2023-05-15T11:58:54.367Z,98069.47
2023-05-15T11:59:56.212Z,98069.47
2023-05-15T12:00:58.424Z,98062.19
2023-05-15T12:02:00.424Z,98070.31
2023-05-15T12:03:03.990Z,98059.78
2023-05-15T12:04:17.092Z,98059.50
2023-05-15T12:05:19.364Z,98053.25
2023-05-15T12:06:21.465Z,98055.97
2023-05-15T12:07:25.412Z,98058.19
2023-05-15T12:08:35.407Z,98059.78
2023-05-15T12:09:40.588Z,98055.78
2023-05-15T12:10:43.831Z,98053.88
2023-05-15T12:11:54.277Z,98056.28
2023-05-15T12:12:56.290Z,98059.78
2023-05-15T12:13:58.283Z,98054.69
2023-05-15T12:15:00.950Z,98057.06
2023-05-15T12:16:04.767Z,98055.16
2023-05-15T12:17:07.126Z,98059.78
2023-05-15T12:18:09.848Z,98058.66
2023-05-15T12:19:11.997Z,98048.69
2023-05-15T12:20:20.248Z,98057.28
2023-05-15T12:21:22.224Z,98063.78
2023-05-15T12:22:24.125Z,98061.09
2023-05-15T12:23:27.345Z,98065.06
2023-05-15T12:24:29.297Z,98064.59
2023-05-15T12:25:33.681Z,98066.50
2023-05-15T12:26:36.208Z,98063.47
2023-05-15T12:27:40.360Z,98060.28
2023-05-15T12:28:42.586Z,98063.00
2023-05-15T12:29:44.989Z,98060.88
2023-05-15T12:30:47.804Z,98064.19
2023-05-15T12:31:54.461Z,98065.28
2023-05-15T12:33:07.136Z,98064.19
2023-05-15T12:34:10.841Z,98062.09
2023-05-15T12:35:12.966Z,98062.69